createdAt,value
2023-05-22T00:02:10.357Z,49.53
2023-05-22T00:04:37.180Z,50.04
2023-05-22T00:07:03.953Z,49.78
2023-05-22T00:09:30.689Z,50.09
2023-05-22T00:11:57.410Z,49.69
2023-05-22T00:14:24.058Z,49.96
2023-05-22T00:16:50.778Z,49.50
2023-05-22T00:19:23.462Z,49.21
2023-05-22T00:21:54.982Z,49.75
2023-05-22T00:24:21.809Z,49.79
2023-05-22T00:26:48.462Z,49.83
2023-05-22T00:29:15.221Z,49.56
2023-05-22T00:31:44.281Z,49.67
2023-05-22T00:34:11.153Z,49.64
2023-05-22T00:36:40.245Z,49.39
2023-05-22T00:39:06.885Z,49.68
2023-05-22T00:41:36.556Z,49.40
2023-05-22T00:44:03.231Z,49.65
2023-05-22T00:46:29.997Z,49.76
2023-05-22T00:48:56.897Z,49.25
2023-05-22T00:51:24.636Z,49.97
2023-05-22T00:53:52.092Z,49.58
2023-05-22T00:56:19.554Z,49.94
2023-05-22T00:58:46.384Z,49.73
2023-05-22T01:01:13.413Z,50.00
2023-05-22T01:03:45.070Z,49.97
2023-05-22T01:06:13.769Z,50.00
2023-05-22T01:08:41.507Z,49.83
2023-05-22T01:11:18.190Z,49.89
2023-05-22T01:14:11.030Z,50.34
2023-05-22T01:16:51.370Z,50.35
2023-05-22T01:19:35.142Z,50.15
2023-05-22T01:22:58.523Z,50.28
2023-05-22T01:25:45.412Z,50.01
2023-05-22T01:28:15.134Z,50.46
2023-05-22T01:31:02.133Z,50.24
2023-05-22T01:33:33.562Z,50.45
2023-05-22T01:36:05.947Z,50.70
2023-05-22T01:38:33.070Z,50.78
2023-05-22T01:41:04.494Z,50.54
2023-05-22T01:43:31.299Z,50.63
2023-05-22T01:46:03.204Z,50.67
2023-05-22T01:48:30.175Z,50.65
2023-05-22T01:51:05.519Z,50.71
2023-05-22T01:53:56.835Z,51.04
2023-05-22T01:56:32.580Z,50.60
2023-05-22T01:59:04.502Z,50.84
2023-05-22T02:01:37.978Z,51.32
2023-05-22T02:04:08.235Z,51.11
2023-05-22T02:06:35.115Z,51.27
2023-05-22T02:09:03.202Z,51.33
2023-05-22T02:11:33.131Z,51.11
2023-05-22T02:14:03.029Z,51.25
2023-05-22T02:16:30.415Z,51.04
2023-05-22T02:19:06.722Z,51.96
2023-05-22T02:21:38.998Z,51.48
2023-05-22T02:24:05.852Z,51.48
2023-05-22T02:26:32.791Z,51.51
2023-05-22T02:28:59.548Z,52.07
2023-05-22T02:31:26.545Z,52.07
2023-05-22T02:33:53.239Z,51.56
2023-05-22T02:36:19.982Z,52.32
2023-05-22T02:38:46.694Z,52.02
2023-05-22T02:41:13.724Z,51.99
2023-05-22T02:43:42.690Z,52.38
2023-05-22T02:46:09.539Z,52.36
2023-05-22T02:48:36.347Z,52.72
2023-05-22T02:51:03.154Z,52.68
2023-05-22T02:53:33.667Z,52.53
2023-05-22T02:56:01.294Z,52.92
2023-05-22T02:58:30.398Z,52.78
2023-05-22T03:00:57.157Z,53.48
2023-05-22T03:03:25.220Z,53.78
2023-05-22T03:05:58.386Z,53.63
2023-05-22T03:08:28.376Z,53.99
2023-05-22T03:10:58.916Z,53.61
2023-05-22T03:13:25.718Z,53.83
2023-05-22T03:15:52.559Z,54.14
2023-05-22T03:18:19.313Z,54.33
2023-05-22T03:20:46.186Z,54.74
2023-05-22T03:23:18.058Z,54.89
2023-05-22T03:25:44.700Z,54.82
2023-05-22T03:28:15.003Z,54.98
2023-05-22T03:30:44.053Z,55.19
2023-05-22T03:33:11.806Z,55.41
2023-05-22T03:35:38.566Z,55.32
2023-05-22T03:38:05.270Z,55.76
2023-05-22T03:40:31.910Z,55.89
2023-05-22T03:42:58.520Z,56.03
2023-05-22T03:45:25.172Z,56.43
2023-05-22T03:47:52.131Z,56.20
2023-05-22T03:50:18.846Z,56.36
2023-05-22T03:52:47.938Z,56.37
2023-05-22T03:55:14.698Z,56.43
2023-05-22T03:57:41.400Z,56.96
2023-05-22T04:00:12.660Z,56.85
2023-05-22T04:02:45.314Z,57.24
2023-05-22T04:05:12.387Z,56.71
2023-05-22T04:07:39.082Z,56.75
2023-05-22T04:10:11.142Z,57.23
2023-05-22T04:12:37.733Z,57.22
2023-05-22T04:15:04.730Z,57.19
2023-05-22T04:17:37.695Z,57.21
2023-05-22T04:20:05.372Z,57.22
2023-05-22T04:22:32.163Z,57.91
2023-05-22T04:24:58.906Z,57.42
2023-05-22T04:27:29.801Z,57.54
2023-05-22T04:29:56.466Z,57.34
2023-05-22T04:32:23.718Z,57.77
2023-05-22T04:34:53.121Z,57.86
2023-05-22T04:37:22.077Z,57.90
2023-05-22T04:39:48.867Z,57.55
2023-05-22T04:42:16.159Z,57.96
2023-05-22T04:44:43.799Z,57.83
2023-05-22T04:47:14.609Z,58.19
2023-05-22T04:49:42.603Z,57.76
2023-05-22T04:52:11.741Z,57.73
2023-05-22T04:54:39.019Z,57.82
2023-05-22T04:57:06.025Z,57.50
2023-05-22T04:59:38.028Z,57.59
2023-05-22T05:02:05.837Z,57.79
2023-05-22T05:04:34.997Z,57.12
2023-05-22T05:07:02.635Z,57.38
2023-05-22T05:09:31.987Z,57.10
2023-05-22T05:11:59.199Z,56.96
2023-05-22T05:14:28.650Z,57.02
2023-05-22T05:16:59.913Z,56.94
2023-05-22T05:19:26.727Z,56.90
2023-05-22T05:21:53.560Z,56.37
2023-05-22T05:24:22.708Z,56.74
2023-05-22T05:26:50.634Z,56.60
2023-05-22T05:29:17.849Z,56.98
2023-05-22T05:31:44.584Z,56.18
2023-05-22T05:34:11.308Z,56.49
2023-05-22T05:36:41.215Z,56.43
2023-05-22T05:39:10.166Z,56.58
2023-05-22T05:41:39.343Z,56.56
2023-05-22T05:44:06.074Z,56.73
2023-05-22T05:46:32.884Z,56.59
2023-05-22T05:48:59.654Z,56.43
2023-05-22T05:51:26.601Z,56.62
2023-05-22T05:53:53.277Z,56.35
2023-05-22T05:56:20.066Z,56.51
2023-05-22T05:58:49.696Z,56.19
2023-05-22T06:01:16.724Z,56.10
2023-05-22T06:03:46.083Z,56.32
2023-05-22T06:06:12.836Z,55.87
2023-05-22T06:08:42.315Z,56.27
2023-05-22T06:11:11.410Z,55.33
2023-05-22T06:13:38.115Z,55.07
2023-05-22T06:16:06.745Z,55.65
2023-05-22T06:18:33.747Z,55.35
2023-05-22T06:21:00.420Z,54.92
2023-05-22T06:23:27.257Z,54.84
2023-05-22T06:25:56.432Z,54.69
2023-05-22T06:28:23.357Z,54.55
2023-05-22T06:30:50.315Z,54.75
2023-05-22T06:33:19.369Z,55.03
2023-05-22T06:35:46.142Z,54.26
2023-05-22T06:38:12.860Z,54.17
2023-05-22T06:40:39.713Z,53.90
2023-05-22T06:43:06.469Z,54.10
2023-05-22T06:45:33.113Z,53.54
2023-05-22T06:47:59.903Z,53.86
2023-05-22T06:50:26.628Z,52.99
2023-05-22T06:52:53.459Z,53.71
2023-05-22T06:55:20.138Z,53.19
2023-05-22T06:57:49.301Z,52.89
2023-05-22T07:00:16.643Z,53.01
2023-05-22T07:02:50.615Z,52.43
2023-05-22T07:05:19.901Z,52.18
2023-05-22T07:07:46.798Z,52.54
2023-05-22T07:10:13.607Z,52.34
2023-05-22T07:12:40.602Z,52.07
2023-05-22T07:15:12.333Z,52.47
2023-05-22T07:17:41.893Z,51.73
2023-05-22T07:20:10.777Z,52.18
2023-05-22T07:22:37.853Z,52.17
2023-05-22T07:25:05.113Z,51.95
2023-05-22T07:27:31.763Z,51.87
2023-05-22T07:29:58.558Z,51.59
2023-05-22T07:32:25.362Z,51.53
2023-05-22T07:34:52.582Z,51.51
2023-05-22T07:37:19.294Z,51.62
2023-05-22T07:39:46.911Z,51.24
2023-05-22T07:42:16.557Z,50.66
2023-05-22T07:44:45.606Z,50.06
2023-05-22T07:47:12.453Z,50.50
2023-05-22T07:49:39.167Z,49.36
2023-05-22T07:52:06.479Z,49.23
2023-05-22T07:54:35.481Z,48.94
2023-05-22T07:57:03.720Z,48.56
2023-05-22T07:59:30.500Z,48.05
2023-05-22T08:01:58.424Z,47.09
2023-05-22T08:04:26.261Z,46.81
2023-05-22T08:06:55.747Z,45.87
2023-05-22T08:09:22.470Z,46.08
2023-05-22T08:11:49.185Z,46.17
2023-05-22T08:14:16.046Z,46.61
2023-05-22T08:16:47.352Z,46.01
2023-05-22T08:19:14.501Z,46.01
2023-05-22T08:21:44.325Z,45.72
2023-05-22T08:24:13.352Z,45.58
2023-05-22T08:26:43.818Z,45.36
2023-05-22T08:29:11.627Z,45.58
2023-05-22T08:31:38.352Z,45.22
2023-05-22T08:34:10.862Z,45.45
2023-05-22T08:36:37.605Z,45.22
2023-05-22T08:39:04.489Z,45.13
2023-05-22T08:41:31.182Z,44.64
2023-05-22T08:43:58.030Z,43.99
2023-05-22T08:46:29.223Z,43.37
2023-05-22T08:48:58.030Z,42.83
2023-05-22T08:51:34.469Z,41.98
2023-05-22T08:54:05.133Z,41.67
2023-05-22T08:56:35.427Z,41.00
2023-05-22T08:59:11.559Z,39.56
2023-05-22T09:01:38.487Z,38.43
2023-05-22T09:04:07.400Z,37.08
2023-05-22T09:06:34.359Z,37.72
2023-05-22T09:09:01.623Z,36.80
2023-05-22T09:11:28.318Z,37.98
2023-05-22T09:14:07.332Z,36.29
2023-05-22T09:16:46.707Z,36.74
2023-05-22T09:19:14.933Z,35.39
2023-05-22T09:21:43.235Z,36.69
2023-05-22T09:24:11.068Z,35.74
2023-05-22T09:26:41.466Z,35.50
2023-05-22T09:29:13.055Z,34.55
2023-05-22T09:31:43.850Z,34.81
2023-05-22T09:34:14.262Z,35.47
2023-05-22T09:36:41.912Z,35.78
2023-05-22T09:39:10.987Z,36.14
2023-05-22T09:41:40.903Z,35.91
2023-05-22T09:44:14.013Z,37.14
2023-05-22T09:46:42.522Z,37.51
2023-05-22T09:49:09.387Z,38.68
2023-05-22T09:51:39.797Z,38.78
2023-05-22T09:54:08.487Z,39.09
2023-05-22T09:56:39.850Z,39.69
2023-05-22T09:59:09.640Z,39.78
2023-05-22T10:01:39.053Z,39.90
2023-05-22T10:04:11.074Z,39.92
2023-05-22T10:06:41.005Z,40.38
2023-05-22T10:09:18.282Z,40.20
2023-05-22T10:11:50.237Z,40.44
2023-05-22T10:14:17.006Z,40.32
2023-05-22T10:16:45.397Z,40.00
2023-05-22T10:19:13.678Z,39.99
2023-05-22T10:21:42.311Z,40.32
2023-05-22T10:24:10.192Z,40.17
2023-05-22T10:26:37.875Z,40.15
2023-05-22T10:29:38.498Z,40.26
2023-05-22T10:32:28.757Z,40.94
2023-05-22T10:35:20.600Z,40.48
2023-05-22T10:38:21.381Z,40.63
2023-05-22T10:40:48.967Z,40.92
2023-05-22T10:43:15.791Z,41.25
2023-05-22T10:45:46.877Z,41.14
2023-05-22T10:48:14.037Z,40.95
2023-05-22T10:50:51.464Z,41.24
2023-05-22T10:53:25.816Z,40.75
2023-05-22T10:55:53.647Z,40.68
2023-05-22T10:58:30.872Z,40.32
2023-05-22T11:01:27.278Z,40.63
2023-05-22T11:04:02.249Z,41.07
2023-05-22T11:06:41.121Z,40.91
2023-05-22T11:09:29.638Z,41.12
2023-05-22T11:12:25.198Z,41.11
2023-05-22T11:14:53.690Z,41.26
2023-05-22T11:17:24.334Z,40.98
2023-05-22T11:20:01.342Z,40.80
2023-05-22T11:22:36.814Z,40.51
2023-05-22T11:25:07.232Z,40.23
2023-05-22T11:27:34.749Z,40.92
2023-05-22T11:30:01.934Z,40.81
2023-05-22T11:32:28.968Z,40.26
2023-05-22T11:34:59.809Z,40.59
2023-05-22T11:37:29.091Z,40.53
2023-05-22T11:39:57.668Z,39.88
2023-05-22T11:42:26.640Z,39.93
2023-05-22T11:44:55.581Z,38.88
2023-05-22T11:47:25.324Z,39.42
2023-05-22T11:49:52.264Z,39.69
2023-05-22T11:52:19.125Z,39.71
2023-05-22T11:54:47.268Z,39.65
2023-05-22T11:57:15.413Z,39.90
2023-05-22T11:59:48.802Z,39.80
2023-05-22T12:02:19.752Z,39.84
2023-05-22T12:04:46.973Z,40.46
2023-05-22T12:07:16.598Z,40.58
2023-05-22T12:09:43.308Z,40.32
2023-05-22T12:12:11.712Z,39.70
2023-05-22T12:14:47.075Z,39.96
2023-05-22T12:17:17.489Z,40.03
2023-05-22T12:19:44.915Z,39.66
2023-05-22T12:22:12.016Z,39.84
2023-05-22T12:24:48.773Z,39.90
2023-05-22T12:27:17.740Z,39.81
2023-05-22T12:29:46.667Z,39.92
2023-05-22T12:32:15.778Z,40.41
2023-05-22T12:34:44.802Z,40.20
2023-05-22T12:37:28.546Z,39.93
2023-05-22T12:40:02.224Z,40.46
2023-05-22T12:42:29.177Z,39.99
2023-05-22T12:44:58.259Z,40.20
2023-05-22T12:47:25.415Z,40.07
2023-05-22T12:49:54.909Z,40.38
2023-05-22T12:52:21.628Z,40.27
2023-05-22T12:54:51.120Z,40.35
2023-05-22T12:57:17.799Z,40.58
2023-05-22T12:59:44.479Z,40.65
2023-05-22T13:02:11.393Z,40.66
2023-05-22T13:04:38.194Z,40.21
2023-05-22T13:07:05.058Z,40.66
2023-05-22T13:09:31.836Z,40.57
2023-05-22T13:12:00.910Z,40.63
2023-05-22T13:14:27.590Z,40.80
2023-05-22T13:16:54.292Z,40.38
2023-05-22T13:19:21.102Z,40.40
2023-05-22T13:21:47.795Z,40.96
2023-05-22T13:24:14.526Z,40.98
2023-05-22T13:26:43.535Z,40.58
2023-05-22T13:29:10.243Z,40.74
2023-05-22T13:31:37.647Z,40.56
2023-05-22T13:34:05.246Z,40.93
2023-05-22T13:36:32.647Z,41.27
2023-05-22T13:38:59.667Z,41.14
2023-05-22T13:41:26.535Z,41.27
2023-05-22T13:43:53.323Z,41.08
2023-05-22T13:46:21.943Z,41.52
2023-05-22T13:48:48.923Z,41.76
2023-05-22T13:51:15.802Z,41.63
2023-05-22T13:53:42.539Z,41.47
2023-05-22T13:56:11.671Z,41.34
2023-05-22T13:58:38.335Z,40.97
2023-05-22T14:01:05.140Z,40.71
2023-05-22T14:03:31.983Z,40.48
2023-05-22T14:05:58.803Z,40.89
2023-05-22T14:08:25.571Z,40.53
2023-05-22T14:10:54.750Z,40.54
2023-05-22T14:13:21.497Z,40.40
2023-05-22T14:15:50.866Z,40.34
2023-05-22T14:18:20.051Z,40.30
2023-05-22T14:20:46.913Z,40.64
2023-05-22T14:23:15.449Z,40.51
2023-05-22T14:25:44.398Z,40.33
2023-05-22T14:28:16.528Z,40.10
2023-05-22T14:30:46.050Z,40.27
2023-05-22T14:33:12.792Z,39.93
2023-05-22T14:35:39.666Z,39.89
2023-05-22T14:38:08.536Z,39.79
2023-05-22T14:40:37.690Z,39.90
2023-05-22T14:43:04.425Z,39.70
2023-05-22T14:45:31.186Z,39.95
2023-05-22T14:48:00.258Z,39.67
2023-05-22T14:50:27.975Z,40.12
2023-05-22T14:52:54.745Z,39.64
2023-05-22T14:55:27.770Z,40.00
2023-05-22T14:57:54.828Z,39.93
2023-05-22T15:00:21.593Z,39.69
2023-05-22T15:02:48.340Z,39.70
2023-05-22T15:05:15.189Z,39.48
2023-05-22T15:07:45.309Z,39.63
2023-05-22T15:10:13.055Z,39.64
2023-05-22T15:12:39.967Z,39.71
2023-05-22T15:15:07.176Z,39.52
2023-05-22T15:17:40.814Z,39.68
2023-05-22T15:20:09.737Z,39.89
2023-05-22T15:22:36.558Z,39.53
2023-05-22T15:25:11.837Z,39.62
2023-05-22T15:27:39.681Z,39.34
2023-05-22T15:30:10.117Z,39.35
2023-05-22T15:32:37.610Z,39.52
2023-05-22T15:35:05.800Z,39.19
2023-05-22T15:37:33.955Z,39.31
2023-05-22T15:40:02.018Z,39.35
2023-05-22T15:42:29.465Z,39.50
2023-05-22T15:44:56.841Z,40.03
2023-05-22T15:47:23.565Z,40.15
2023-05-22T15:49:50.371Z,40.07
2023-05-22T15:52:19.576Z,39.80
2023-05-22T15:54:46.274Z,39.82
2023-05-22T15:57:13.072Z,39.65
2023-05-22T15:59:39.718Z,39.45
2023-05-22T16:02:06.442Z,39.53
2023-05-22T16:04:35.585Z,39.90
2023-05-22T16:07:02.236Z,39.76
2023-05-22T16:09:32.776Z,39.72
2023-05-22T16:12:02.568Z,39.43
2023-05-22T16:14:29.765Z,39.95
2023-05-22T16:17:01.463Z,39.67
2023-05-22T16:19:28.383Z,39.69
2023-05-22T16:21:55.222Z,39.75
2023-05-22T16:24:21.914Z,39.71
2023-05-22T16:26:53.287Z,39.89
2023-05-22T16:29:21.098Z,40.17
2023-05-22T16:31:52.168Z,40.03
2023-05-22T16:34:21.383Z,40.03
2023-05-22T16:36:50.416Z,39.48
2023-05-22T16:39:17.093Z,39.91
2023-05-22T16:41:43.964Z,39.52
2023-05-22T16:44:10.611Z,39.61
2023-05-22T16:46:39.703Z,39.55
2023-05-22T16:49:06.416Z,40.24
2023-05-22T16:51:33.258Z,39.72
2023-05-22T16:54:00.068Z,39.75
2023-05-22T16:56:27.533Z,39.71
2023-05-22T16:58:54.274Z,40.04
2023-05-22T17:01:23.658Z,40.33
2023-05-22T17:03:54.017Z,40.10
2023-05-22T17:06:21.155Z,40.33
2023-05-22T17:08:47.940Z,40.31
2023-05-22T17:11:14.619Z,40.58
2023-05-22T17:13:43.620Z,40.90
2023-05-22T17:16:10.275Z,40.64
2023-05-22T17:18:37.913Z,40.88
2023-05-22T17:21:04.750Z,40.79
2023-05-22T17:23:31.399Z,41.00
2023-05-22T17:26:03.012Z,40.81
2023-05-22T17:28:29.714Z,41.00
2023-05-22T17:30:56.577Z,41.10
2023-05-22T17:33:26.386Z,41.14
2023-05-22T17:35:53.265Z,41.07
2023-05-22T17:38:21.957Z,41.74
2023-05-22T17:40:52.018Z,41.35
2023-05-22T17:43:21.532Z,41.40
2023-05-22T17:45:51.396Z,41.75
2023-05-22T17:48:27.380Z,41.52
2023-05-22T17:50:56.679Z,41.84
2023-05-22T17:53:23.433Z,42.11
2023-05-22T17:55:52.365Z,42.50
2023-05-22T17:58:20.696Z,41.82
2023-05-22T18:00:48.811Z,41.89
2023-05-22T18:03:21.536Z,42.19
2023-05-22T18:05:50.023Z,42.00
2023-05-22T18:08:17.910Z,42.45
2023-05-22T18:10:44.720Z,42.19
2023-05-22T18:13:11.454Z,42.01
2023-05-22T18:15:38.184Z,42.29
2023-05-22T18:18:05.292Z,42.00
2023-05-22T18:20:33.543Z,42.22
2023-05-22T18:23:01.021Z,42.22
2023-05-22T18:25:27.967Z,42.14
2023-05-22T18:27:57.072Z,42.04
2023-05-22T18:30:23.744Z,42.22
2023-05-22T18:32:52.854Z,42.02
2023-05-22T18:35:19.606Z,42.59
2023-05-22T18:37:48.840Z,42.08
2023-05-22T18:40:15.885Z,42.24
2023-05-22T18:42:43.559Z,42.05
2023-05-22T18:45:12.003Z,42.55
2023-05-22T18:47:38.920Z,42.67
2023-05-22T18:50:06.166Z,42.90
2023-05-22T18:52:32.815Z,42.91
2023-05-22T18:54:59.653Z,43.01
2023-05-22T18:57:26.288Z,43.04
2023-05-22T18:59:52.977Z,42.92
2023-05-22T19:02:24.784Z,43.03
2023-05-22T19:04:51.692Z,43.08
2023-05-22T19:07:21.395Z,43.09
2023-05-22T19:09:49.733Z,43.13
2023-05-22T19:12:16.548Z,43.48
2023-05-22T19:14:43.407Z,43.46
2023-05-22T19:17:10.335Z,43.76
2023-05-22T19:19:37.337Z,43.71
2023-05-22T19:22:04.162Z,43.78
2023-05-22T19:24:33.108Z,43.81
2023-05-22T19:26:59.838Z,44.44
2023-05-22T19:29:26.671Z,44.29
2023-05-22T19:31:56.233Z,44.23
2023-05-22T19:34:22.939Z,44.95
2023-05-22T19:36:51.747Z,44.52
2023-05-22T19:39:21.001Z,44.75
2023-05-22T19:41:47.789Z,45.02
2023-05-22T19:44:14.564Z,45.19
2023-05-22T19:46:43.574Z,45.41
2023-05-22T19:49:12.979Z,45.09
2023-05-22T19:51:39.697Z,45.66
2023-05-22T19:54:06.619Z,45.58
2023-05-22T19:56:35.064Z,45.16
2023-05-22T19:59:01.833Z,45.63
2023-05-22T20:01:28.899Z,45.56
2023-05-22T20:03:56.271Z,45.81
2023-05-22T20:06:23.342Z,46.11
2023-05-22T20:08:50.152Z,46.17
2023-05-22T20:11:19.513Z,46.16
2023-05-22T20:13:46.403Z,45.77
2023-05-22T20:16:17.703Z,45.94
2023-05-22T20:18:44.923Z,46.15
2023-05-22T20:21:11.579Z,45.94
2023-05-22T20:23:40.814Z,46.19
2023-05-22T20:26:10.234Z,46.38
2023-05-22T20:28:36.905Z,46.35
2023-05-22T20:31:06.165Z,46.23
2023-05-22T20:33:33.105Z,46.12
2023-05-22T20:36:01.322Z,46.80
2023-05-22T20:38:34.865Z,46.50
2023-05-22T20:41:08.159Z,47.07
2023-05-22T20:43:36.377Z,46.81
2023-05-22T20:46:03.276Z,46.55
2023-05-22T20:48:32.601Z,47.20
2023-05-22T20:50:59.252Z,46.69
2023-05-22T20:53:26.106Z,46.63
2023-05-22T20:55:53.386Z,46.31
2023-05-22T20:58:20.234Z,46.06
2023-05-22T21:00:50.211Z,46.18
2023-05-22T21:03:17.768Z,45.41
2023-05-22T21:05:44.512Z,45.80
2023-05-22T21:08:13.762Z,45.88
2023-05-22T21:10:42.781Z,45.64
2023-05-22T21:13:09.499Z,45.86
2023-05-22T21:15:36.308Z,45.30
2023-05-22T21:18:08.298Z,45.53
2023-05-22T21:20:39.921Z,45.64
2023-05-22T21:23:06.863Z,45.04
2023-05-22T21:25:33.689Z,45.14
2023-05-22T21:28:01.871Z,45.66
2023-05-22T21:30:28.544Z,45.27
2023-05-22T21:32:57.594Z,45.35
2023-05-22T21:35:27.252Z,45.09
2023-05-22T21:37:56.475Z,45.35
2023-05-22T21:40:23.304Z,45.09
2023-05-22T21:42:49.977Z,45.02
2023-05-22T21:45:19.258Z,45.31
2023-05-22T21:47:46.071Z,45.60
2023-05-22T21:50:15.471Z,45.35
2023-05-22T21:52:42.147Z,45.41
2023-05-22T21:55:09.169Z,46.08
2023-05-22T21:57:36.445Z,45.46
2023-05-22T22:00:03.622Z,45.20
2023-05-22T22:02:30.306Z,45.32
2023-05-22T22:04:59.240Z,45.51
2023-05-22T22:07:26.164Z,45.74
2023-05-22T22:09:52.859Z,45.19
2023-05-22T22:12:19.604Z,45.22
2023-05-22T22:14:48.515Z,45.05
2023-05-22T22:17:16.887Z,44.93
2023-05-22T22:19:44.485Z,44.80
2023-05-22T22:22:12.568Z,44.89
2023-05-22T22:24:39.465Z,44.38
2023-05-22T22:27:08.432Z,44.34
2023-05-22T22:29:37.455Z,44.56
2023-05-22T22:32:04.337Z,44.82
2023-05-22T22:34:31.200Z,43.98
2023-05-22T22:36:57.931Z,43.89
2023-05-22T22:39:27.098Z,43.95
2023-05-22T22:41:56.040Z,43.63
2023-05-22T22:44:22.732Z,44.20
2023-05-22T22:46:49.735Z,43.55
2023-05-22T22:49:21.819Z,43.99
2023-05-22T22:51:49.374Z,43.41
2023-05-22T22:54:18.270Z,43.04
2023-05-22T22:56:46.950Z,43.46
2023-05-22T22:59:13.676Z,42.85
2023-05-22T23:01:40.466Z,41.89
2023-05-22T23:04:07.207Z,42.12
2023-05-22T23:06:34.686Z,41.46
2023-05-22T23:09:03.249Z,41.43
2023-05-22T23:11:37.706Z,41.46
2023-05-22T23:14:07.484Z,41.14
2023-05-22T23:16:41.529Z,40.90
2023-05-22T23:19:09.490Z,41.11
2023-05-22T23:21:36.603Z,40.60
2023-05-22T23:24:04.665Z,40.18
2023-05-22T23:26:31.931Z,40.92
2023-05-22T23:29:01.663Z,40.98
2023-05-22T23:31:31.894Z,40.36
2023-05-22T23:34:01.256Z,41.03
2023-05-22T23:36:29.224Z,40.77
2023-05-22T23:38:58.086Z,40.82
2023-05-22T23:41:27.695Z,40.63
2023-05-22T23:43:54.427Z,40.97
2023-05-22T23:46:24.647Z,40.85
2023-05-22T23:48:51.680Z,40.92
2023-05-22T23:51:20.946Z,40.82
2023-05-22T23:53:47.674Z,41.09
2023-05-22T23:56:14.335Z,41.07
2023-05-22T23:58:41.013Z,40.89
